createdAt,value
2023-04-25T00:00:18.444Z,8.20
2023-04-25T00:02:45.694Z,8.23
2023-04-25T00:05:13.470Z,8.23
2023-04-25T00:07:40.642Z,8.22
2023-04-25T00:10:08.932Z,8.23
2023-04-25T00:12:36.996Z,8.20
2023-04-25T00:15:04.812Z,8.17
2023-04-25T00:17:32.492Z,8.16
2023-04-25T00:19:59.554Z,8.15
2023-04-25T00:22:26.555Z,8.12
2023-04-25T00:24:54.487Z,8.12
2023-04-25T00:27:21.543Z,8.11
2023-04-25T00:29:48.511Z,8.11
2023-04-25T00:32:15.583Z,8.10
2023-04-25T00:34:42.515Z,8.06
2023-04-25T00:37:09.964Z,8.06
2023-04-25T00:39:37.005Z,8.04
2023-04-25T00:42:04.546Z,8.02
2023-04-25T00:44:33.313Z,7.99
2023-04-25T00:47:02.795Z,7.96
2023-04-25T00:49:29.851Z,7.96
2023-04-25T00:51:58.072Z,7.96
2023-04-25T00:54:25.671Z,7.94
2023-04-25T00:56:53.514Z,7.92
2023-04-25T00:59:21.575Z,7.91
2023-04-25T01:01:48.767Z,7.91
2023-04-25T01:04:16.033Z,7.87
2023-04-25T01:06:43.345Z,7.84
2023-04-25T01:09:11.306Z,7.82
2023-04-25T01:11:38.551Z,7.80
2023-04-25T01:14:05.530Z,7.79
2023-04-25T01:16:34.281Z,7.79
2023-04-25T01:19:01.620Z,7.79
2023-04-25T01:21:30.835Z,7.75
2023-04-25T01:23:58.669Z,7.71
2023-04-25T01:26:26.654Z,7.67
2023-04-25T01:28:53.850Z,7.60
2023-04-25T01:31:21.097Z,7.56
2023-04-25T01:33:49.824Z,7.51
2023-04-25T01:36:17.504Z,7.46
2023-04-25T01:38:45.069Z,7.42
2023-04-25T01:41:12.326Z,7.38
2023-04-25T01:43:39.633Z,7.34
2023-04-25T01:46:06.926Z,7.29
2023-04-25T01:48:33.956Z,7.25
2023-04-25T01:51:00.982Z,7.20
2023-04-25T01:53:28.515Z,7.16
2023-04-25T01:55:55.740Z,7.12
2023-04-25T01:58:22.727Z,7.09
2023-04-25T02:00:49.761Z,7.06
2023-04-25T02:03:17.074Z,7.06
2023-04-25T02:05:44.161Z,7.04
2023-04-25T02:08:11.435Z,7.02
2023-04-25T02:10:38.753Z,7.00
2023-04-25T02:13:06.355Z,7.05
2023-04-25T02:15:33.416Z,7.08
2023-04-25T02:18:01.401Z,7.12
2023-04-25T02:20:31.196Z,7.13
2023-04-25T02:22:58.327Z,7.14
2023-04-25T02:25:25.755Z,7.20
2023-04-25T02:27:52.952Z,7.23
2023-04-25T02:30:20.541Z,7.27
2023-04-25T02:32:48.061Z,7.28
2023-04-25T02:35:15.060Z,7.32
2023-04-25T02:37:43.463Z,7.36
2023-04-25T02:40:11.282Z,7.38
2023-04-25T02:42:38.259Z,7.40
2023-04-25T02:45:05.952Z,7.41
2023-04-25T02:47:33.191Z,7.41
2023-04-25T02:50:00.332Z,7.40
2023-04-25T02:52:27.374Z,7.38
2023-04-25T02:54:54.409Z,7.36
2023-04-25T02:57:21.473Z,7.35
2023-04-25T02:59:48.474Z,7.31
2023-04-25T03:02:15.915Z,7.33
2023-04-25T03:04:43.238Z,7.30
2023-04-25T03:07:10.934Z,7.30
2023-04-25T03:09:37.933Z,7.29
2023-04-25T03:12:05.418Z,7.27
2023-04-25T03:14:32.538Z,7.26
2023-04-25T03:16:59.521Z,7.24
2023-04-25T03:19:26.773Z,7.22
2023-04-25T03:21:54.642Z,7.20
2023-04-25T03:24:21.637Z,7.18
2023-04-25T03:26:48.653Z,7.15
2023-04-25T03:29:15.684Z,7.14
2023-04-25T03:31:42.820Z,7.14
2023-04-25T03:34:09.897Z,7.15
2023-04-25T03:36:36.866Z,7.17
2023-04-25T03:39:03.969Z,7.17
2023-04-25T03:41:31.159Z,7.16
2023-04-25T03:43:58.147Z,7.16
2023-04-25T03:46:25.238Z,7.18
2023-04-25T03:48:52.329Z,7.18
2023-04-25T03:51:19.311Z,7.21
2023-04-25T03:53:46.347Z,7.20
2023-04-25T03:56:13.317Z,7.21
2023-04-25T03:58:40.477Z,7.21
2023-04-25T04:01:08.886Z,7.22
2023-04-25T04:03:37.404Z,7.24
2023-04-25T04:06:09.916Z,7.24
2023-04-25T04:08:36.968Z,7.25
2023-04-25T04:11:04.239Z,7.25
2023-04-25T04:13:31.540Z,7.27
2023-04-25T04:15:59.126Z,7.27
2023-04-25T04:18:26.391Z,7.30
2023-04-25T04:20:53.388Z,7.30
2023-04-25T04:23:21.702Z,7.31
2023-04-25T04:25:48.936Z,7.33
2023-04-25T04:28:17.268Z,7.34
2023-04-25T04:30:48.032Z,7.36
2023-04-25T04:33:19.921Z,7.38
2023-04-25T04:35:47.932Z,7.41
2023-04-25T04:38:16.584Z,7.41
2023-04-25T04:40:44.141Z,7.44
2023-04-25T04:43:11.403Z,7.46
2023-04-25T04:45:41.594Z,7.49
2023-04-25T04:48:09.766Z,7.52
2023-04-25T04:50:36.887Z,7.54
2023-04-25T04:53:05.326Z,7.58
2023-04-25T04:55:32.398Z,7.62
2023-04-25T04:57:59.404Z,7.69
2023-04-25T05:00:29.506Z,7.72
2023-04-25T05:02:57.779Z,7.77
2023-04-25T05:05:25.158Z,7.82
2023-04-25T05:07:52.439Z,7.92
2023-04-25T05:10:21.216Z,7.97
2023-04-25T05:12:48.381Z,7.96
2023-04-25T05:15:15.825Z,7.95
2023-04-25T05:17:42.957Z,7.95
2023-04-25T05:20:10.846Z,7.96
2023-04-25T05:22:38.394Z,7.95
2023-04-25T05:25:06.448Z,7.96
2023-04-25T05:27:33.527Z,8.02
2023-04-25T05:30:00.872Z,8.15
2023-04-25T05:32:28.354Z,8.28
2023-04-25T05:34:55.582Z,8.35
2023-04-25T05:37:22.894Z,8.40
2023-04-25T05:39:49.887Z,8.52
2023-04-25T05:42:16.989Z,8.63
2023-04-25T05:44:44.063Z,8.77
2023-04-25T05:47:11.218Z,8.91
2023-04-25T05:49:38.354Z,8.97
2023-04-25T05:52:05.789Z,9.02
2023-04-25T05:54:32.775Z,9.10
2023-04-25T05:56:59.832Z,9.12
2023-04-25T05:59:26.925Z,9.18
2023-04-25T06:01:53.934Z,9.23
2023-04-25T06:04:21.388Z,9.27
2023-04-25T06:06:48.661Z,9.30
2023-04-25T06:09:15.644Z,9.35
2023-04-25T06:11:42.695Z,9.43
2023-04-25T06:14:09.876Z,9.51
2023-04-25T06:16:36.981Z,9.60
2023-04-25T06:19:03.948Z,9.66
2023-04-25T06:21:30.951Z,9.68
2023-04-25T06:23:57.948Z,9.75
2023-04-25T06:26:24.981Z,9.85
2023-04-25T06:28:51.989Z,9.96
2023-04-25T06:31:19.002Z,9.98
2023-04-25T06:33:46.236Z,10.04
2023-04-25T06:36:13.240Z,10.12
2023-04-25T06:38:40.264Z,10.37
2023-04-25T06:41:07.405Z,10.61
2023-04-25T06:43:34.575Z,10.67
2023-04-25T06:46:01.856Z,10.74
2023-04-25T06:48:29.198Z,10.74
2023-04-25T06:50:57.452Z,10.73
2023-04-25T06:53:24.589Z,10.73
2023-04-25T06:55:51.676Z,10.75
2023-04-25T06:58:19.480Z,10.64
2023-04-25T07:00:46.552Z,10.61
2023-04-25T07:03:13.706Z,10.65
2023-04-25T07:05:40.847Z,10.58
2023-04-25T07:08:07.861Z,10.55
2023-04-25T07:10:34.870Z,10.54
2023-04-25T07:13:01.846Z,10.54
2023-04-25T07:15:28.850Z,10.56
2023-04-25T07:17:55.941Z,10.57
2023-04-25T07:20:23.056Z,10.60
2023-04-25T07:22:51.123Z,10.62
2023-04-25T07:25:18.533Z,10.71
2023-04-25T07:27:45.576Z,10.80
2023-04-25T07:30:13.430Z,10.87
2023-04-25T07:32:40.810Z,10.95
2023-04-25T07:35:08.822Z,11.04
2023-04-25T07:37:36.928Z,11.12
2023-04-25T07:40:05.244Z,11.22
2023-04-25T07:42:32.416Z,11.34
2023-04-25T07:44:59.470Z,11.38
2023-04-25T07:47:26.608Z,11.45
2023-04-25T07:49:53.746Z,11.52
2023-04-25T07:52:20.833Z,11.40
2023-04-25T07:54:48.802Z,11.55
2023-04-25T07:57:15.935Z,11.74
2023-04-25T07:59:42.965Z,11.99
2023-04-25T08:02:09.992Z,12.07
2023-04-25T08:04:37.365Z,12.36
2023-04-25T08:07:04.573Z,12.56
2023-04-25T08:09:35.598Z,12.64
2023-04-25T08:12:03.265Z,12.80
2023-04-25T08:14:36.525Z,12.79
2023-04-25T08:17:04.664Z,13.04
2023-04-25T08:19:32.171Z,13.11
2023-04-25T08:21:59.226Z,13.05
2023-04-25T08:24:26.243Z,13.01
2023-04-25T08:26:53.523Z,12.95
2023-04-25T08:29:20.875Z,12.84
2023-04-25T08:31:49.220Z,12.67
2023-04-25T08:34:16.480Z,12.42
2023-04-25T08:36:43.559Z,12.27
2023-04-25T08:39:10.537Z,12.19
2023-04-25T08:41:38.757Z,12.18
2023-04-25T08:44:10.278Z,12.23
2023-04-25T08:46:43.348Z,12.30
2023-04-25T08:49:12.386Z,12.44
2023-04-25T08:51:51.892Z,12.66
2023-04-25T08:54:34.178Z,12.90
2023-04-25T08:57:05.402Z,13.13
2023-04-25T08:59:34.022Z,13.35
2023-04-25T09:02:02.011Z,13.55
2023-04-25T09:04:31.993Z,13.75
2023-04-25T09:06:59.871Z,13.88
2023-04-25T09:09:26.918Z,13.95
2023-04-25T09:11:56.509Z,14.03
2023-04-25T09:14:27.003Z,14.14
2023-04-25T09:16:57.097Z,14.24
2023-04-25T09:19:39.053Z,14.29
2023-04-25T09:22:08.472Z,14.36
2023-04-25T09:24:44.603Z,14.25
2023-04-25T09:27:14.365Z,14.06
2023-04-25T09:29:43.108Z,14.08
2023-04-25T09:32:17.028Z,14.28
2023-04-25T09:34:49.413Z,14.43
2023-04-25T09:37:21.663Z,14.87
2023-04-25T09:40:01.472Z,15.03
2023-04-25T09:42:32.356Z,15.02
2023-04-25T09:45:03.281Z,15.20
2023-04-25T09:47:30.390Z,15.60
2023-04-25T09:49:57.444Z,15.94
2023-04-25T09:52:26.344Z,15.84
2023-04-25T09:54:54.313Z,15.65
2023-04-25T09:57:24.143Z,15.60
2023-04-25T09:59:56.132Z,15.39
2023-04-25T10:02:27.260Z,15.03
2023-04-25T10:04:58.495Z,14.76
2023-04-25T10:07:31.189Z,14.48
2023-04-25T10:10:07.003Z,14.27
2023-04-25T10:12:35.205Z,14.18
2023-04-25T10:15:04.006Z,14.38
2023-04-25T10:17:32.609Z,14.36
2023-04-25T10:20:02.634Z,14.48
2023-04-25T10:22:38.095Z,14.43
2023-04-25T10:25:07.644Z,14.40
2023-04-25T10:27:35.680Z,14.41
2023-04-25T10:30:19.407Z,14.84
2023-04-25T10:32:48.214Z,15.21
2023-04-25T10:35:25.127Z,15.21
2023-04-25T10:38:11.843Z,15.33
2023-04-25T10:40:39.244Z,15.59
2023-04-25T10:43:34.843Z,15.65
2023-04-25T10:46:02.635Z,15.90
2023-04-25T10:48:32.052Z,15.90
2023-04-25T10:51:13.241Z,15.74
2023-04-25T10:53:40.295Z,15.74
2023-04-25T10:56:42.344Z,15.68
2023-04-25T10:59:14.137Z,15.48
2023-04-25T11:01:52.544Z,15.32
2023-04-25T11:04:32.037Z,15.17
2023-04-25T11:07:11.290Z,15.08
2023-04-25T11:09:42.185Z,14.88
2023-04-25T11:12:12.489Z,14.72
2023-04-25T11:17:08.252Z,14.97
2023-04-25T11:19:35.422Z,15.29
2023-04-25T11:22:04.401Z,15.54
2023-04-25T11:24:36.583Z,15.80
2023-04-25T11:27:07.175Z,15.67
2023-04-25T11:29:36.144Z,15.28
2023-04-25T11:32:03.672Z,14.83
2023-04-25T11:34:34.167Z,14.44
2023-04-25T11:37:05.220Z,14.11
2023-04-25T11:39:32.364Z,13.80
2023-04-25T11:42:00.003Z,13.47
2023-04-25T11:44:29.630Z,13.29
2023-04-25T11:46:56.819Z,13.20
2023-04-25T11:49:25.771Z,13.16
2023-04-25T11:51:52.927Z,13.20
2023-04-25T11:54:19.943Z,13.33
2023-04-25T11:56:47.363Z,13.51
2023-04-25T11:59:15.209Z,13.67
2023-04-25T12:01:50.551Z,13.79
2023-04-25T12:04:23.855Z,13.77
2023-04-25T12:06:54.258Z,14.04
2023-04-25T12:09:30.393Z,14.30
2023-04-25T12:12:00.034Z,14.53
2023-04-25T12:14:30.046Z,14.62
2023-04-25T12:16:59.320Z,15.02
2023-04-25T12:19:27.370Z,14.98
2023-04-25T12:21:58.631Z,14.87
2023-04-25T12:24:28.775Z,14.93
2023-04-25T12:27:09.423Z,15.05
2023-04-25T12:29:48.577Z,15.09
2023-04-25T12:32:18.048Z,15.15
2023-04-25T12:34:46.087Z,15.20
2023-04-25T12:37:13.871Z,15.15
2023-04-25T12:39:41.034Z,15.10
2023-04-25T12:42:13.266Z,15.16
2023-04-25T12:44:41.651Z,15.19
2023-04-25T12:47:08.861Z,15.24
2023-04-25T12:49:35.954Z,15.62
2023-04-25T12:52:03.041Z,15.86
2023-04-25T12:54:30.051Z,15.97
2023-04-25T12:56:57.367Z,15.74
2023-04-25T12:59:24.472Z,15.46
2023-04-25T13:01:51.605Z,15.24
2023-04-25T13:04:18.805Z,15.02
2023-04-25T13:06:46.062Z,14.85
2023-04-25T13:09:13.638Z,14.83
2023-04-25T13:11:42.489Z,14.82
2023-04-25T13:14:10.791Z,14.77
2023-04-25T13:16:37.910Z,14.72
2023-04-25T13:19:04.978Z,14.71
2023-04-25T13:21:34.919Z,14.77
2023-04-25T13:24:02.004Z,14.81
2023-04-25T13:26:29.144Z,14.90
2023-04-25T13:28:56.144Z,14.97
2023-04-25T13:31:23.159Z,14.93
2023-04-25T13:33:51.271Z,14.83
2023-04-25T13:36:18.479Z,14.64
2023-04-25T13:38:48.196Z,14.47
2023-04-25T13:41:19.641Z,14.36
2023-04-25T13:43:49.061Z,14.21
2023-04-25T13:46:35.265Z,13.97
2023-04-25T13:49:12.388Z,14.15
2023-04-25T13:51:41.349Z,14.32
2023-04-25T13:54:08.727Z,14.51
2023-04-25T13:56:36.004Z,14.76
2023-04-25T13:59:03.054Z,14.88
2023-04-25T14:01:32.219Z,14.84
2023-04-25T14:03:59.470Z,14.69
2023-04-25T14:06:27.147Z,14.61
2023-04-25T14:08:55.441Z,14.61
2023-04-25T14:11:22.527Z,14.52
2023-04-25T14:13:50.598Z,14.53
2023-04-25T14:16:18.116Z,14.55
2023-04-25T14:18:45.417Z,14.73
2023-04-25T14:21:12.492Z,15.00
2023-04-25T14:23:39.478Z,15.27
2023-04-25T14:26:06.713Z,15.51
2023-04-25T14:28:33.763Z,15.84
2023-04-25T14:31:01.614Z,15.91
2023-04-25T14:33:28.886Z,15.74
2023-04-25T14:35:56.086Z,15.32
2023-04-25T14:38:24.434Z,14.92
2023-04-25T14:40:51.850Z,14.53
2023-04-25T14:43:19.104Z,14.19
2023-04-25T14:45:46.412Z,13.90
2023-04-25T14:48:13.754Z,13.81
2023-04-25T14:50:40.955Z,13.80
2023-04-25T14:53:07.972Z,13.78
2023-04-25T14:55:34.998Z,13.75
2023-04-25T14:58:02.116Z,13.70
2023-04-25T15:00:29.238Z,13.75
2023-04-25T15:02:57.207Z,13.74
2023-04-25T15:05:24.430Z,13.79
2023-04-25T15:07:51.576Z,13.95
2023-04-25T15:10:20.494Z,14.29
2023-04-25T15:12:48.012Z,14.52
2023-04-25T15:15:22.688Z,14.47
2023-04-25T15:17:52.833Z,14.38
2023-04-25T15:20:19.946Z,14.32
2023-04-25T15:22:47.111Z,14.36
2023-04-25T15:25:14.164Z,15.00
2023-04-25T15:27:44.507Z,15.79
2023-04-25T15:30:17.344Z,16.15
2023-04-25T15:32:48.578Z,16.29
2023-04-25T15:35:16.320Z,16.41
2023-04-25T15:37:44.133Z,16.77
2023-04-25T15:40:16.326Z,16.98
2023-04-25T15:42:48.209Z,16.69
2023-04-25T15:45:17.845Z,16.22
2023-04-25T15:47:46.029Z,15.61
2023-04-25T15:50:16.221Z,15.20
2023-04-25T15:52:43.770Z,14.92
2023-04-25T15:55:12.965Z,14.78
2023-04-25T15:57:42.074Z,14.71
2023-04-25T16:00:13.580Z,14.68
2023-04-25T16:02:42.080Z,14.86
2023-04-25T16:05:11.318Z,15.09
2023-04-25T16:07:44.864Z,15.38
2023-04-25T16:10:13.287Z,15.86
2023-04-25T16:12:41.122Z,16.40
2023-04-25T16:15:08.853Z,16.83
2023-04-25T16:17:36.025Z,16.80
2023-04-25T16:20:09.789Z,16.37
2023-04-25T16:22:40.347Z,15.93
2023-04-25T16:25:08.678Z,16.20
2023-04-25T16:27:37.993Z,16.27
2023-04-25T16:30:10.694Z,16.70
2023-04-25T16:32:38.278Z,17.38
2023-04-25T16:35:06.004Z,17.95
2023-04-25T16:37:33.246Z,18.39
2023-04-25T16:40:00.555Z,18.55
2023-04-25T16:42:27.604Z,18.76
2023-04-25T16:44:54.575Z,19.14
2023-04-25T16:47:22.165Z,19.58
2023-04-25T16:49:49.234Z,19.66
2023-04-25T16:52:16.397Z,19.78
2023-04-25T16:54:43.754Z,19.43
2023-04-25T16:57:11.474Z,18.26
2023-04-25T16:59:39.693Z,17.66
2023-04-25T17:02:10.690Z,18.00
2023-04-25T17:04:37.918Z,18.31
2023-04-25T17:07:05.602Z,18.10
2023-04-25T17:09:32.992Z,17.38
2023-04-25T17:12:00.437Z,16.54
2023-04-25T17:14:28.006Z,15.80
2023-04-25T17:16:55.455Z,15.34
2023-04-25T17:19:22.769Z,15.75
2023-04-25T17:21:50.520Z,16.55
2023-04-25T17:24:18.214Z,17.34
2023-04-25T17:26:48.166Z,18.12
2023-04-25T17:29:15.922Z,18.84
2023-04-25T17:31:44.120Z,19.23
2023-04-25T17:34:16.505Z,19.50
2023-04-25T17:36:45.354Z,19.66
2023-04-25T17:39:14.779Z,19.56
2023-04-25T17:41:42.092Z,19.39
2023-04-25T17:44:09.185Z,19.27
2023-04-25T17:46:36.591Z,19.22
2023-04-25T17:49:03.736Z,19.16
2023-04-25T17:51:31.695Z,19.16
2023-04-25T17:53:58.773Z,19.24
2023-04-25T17:56:27.592Z,19.19
2023-04-25T17:58:55.796Z,19.17
2023-04-25T18:01:23.283Z,19.00
2023-04-25T18:03:51.703Z,18.64
2023-04-25T18:06:19.342Z,17.65
2023-04-25T18:08:47.162Z,16.53
2023-04-25T18:11:14.438Z,15.74
2023-04-25T18:13:41.667Z,15.13
2023-04-25T18:16:08.857Z,14.59
2023-04-25T18:18:36.943Z,14.16
2023-04-25T18:21:07.471Z,13.76
2023-04-25T18:23:34.898Z,13.39
2023-04-25T18:26:04.066Z,13.06
2023-04-25T18:28:31.205Z,12.77
2023-04-25T18:30:58.342Z,12.49
2023-04-25T18:33:25.435Z,12.28
2023-04-25T18:38:34.889Z,12.02
2023-04-25T18:41:26.783Z,11.83
2023-04-25T18:43:56.218Z,11.64
2023-04-25T18:46:23.663Z,11.49
2023-04-25T18:48:55.066Z,11.37
2023-04-25T18:51:24.133Z,11.20
2023-04-25T18:53:52.539Z,11.06
2023-04-25T18:56:22.682Z,10.93
2023-04-25T18:58:51.440Z,10.85
2023-04-25T19:01:19.068Z,10.77
2023-04-25T19:03:46.534Z,10.71
2023-04-25T19:06:13.638Z,10.66
2023-04-25T19:08:40.739Z,10.59
2023-04-25T19:11:20.545Z,10.52
2023-04-25T19:13:49.446Z,10.44
2023-04-25T19:16:18.031Z,10.38
2023-04-25T19:18:46.525Z,10.32
2023-04-25T19:21:14.037Z,10.27
2023-04-25T19:23:41.826Z,10.20
2023-04-25T19:26:09.002Z,10.14
2023-04-25T19:28:36.074Z,10.06
2023-04-25T19:31:03.197Z,10.01
2023-04-25T19:33:30.513Z,9.98
2023-04-25T19:35:57.586Z,9.93
2023-04-25T19:38:24.605Z,9.88
2023-04-25T19:40:51.689Z,9.79
2023-04-25T19:43:19.645Z,9.75
2023-04-25T19:45:46.923Z,9.69
2023-04-25T19:48:14.185Z,9.65
2023-04-25T19:50:41.732Z,9.61
2023-04-25T19:53:09.940Z,9.57
2023-04-25T19:55:37.186Z,9.53
2023-04-25T19:58:06.738Z,9.49
2023-04-25T20:00:33.906Z,9.43
2023-04-25T20:03:01.234Z,9.39
2023-04-25T20:05:28.406Z,9.34
2023-04-25T20:07:55.449Z,9.30
2023-04-25T20:10:23.044Z,9.22
2023-04-25T20:12:50.037Z,9.15
2023-04-25T20:15:19.070Z,9.08
2023-04-25T20:17:46.419Z,9.01
2023-04-25T20:20:13.832Z,8.96
2023-04-25T20:22:41.109Z,8.90
2023-04-25T20:25:10.035Z,8.86
2023-04-25T20:27:39.916Z,8.81
2023-04-25T20:30:09.285Z,8.77
2023-04-25T20:32:37.491Z,8.72
2023-04-25T20:35:08.637Z,8.67
2023-04-25T20:37:36.716Z,8.64
2023-04-25T20:40:07.808Z,8.60
2023-04-25T20:42:36.494Z,8.55
2023-04-25T20:45:07.758Z,8.49
2023-04-25T20:47:35.377Z,8.42
2023-04-25T20:50:05.934Z,8.39
2023-04-25T20:52:33.407Z,8.34
2023-04-25T20:55:00.974Z,8.29
2023-04-25T20:57:29.262Z,8.25
2023-04-25T20:59:57.496Z,8.19
2023-04-25T21:02:24.975Z,8.15
2023-04-25T21:04:52.024Z,8.09
2023-04-25T21:07:19.619Z,8.07
2023-04-25T21:09:47.914Z,8.01
2023-04-25T21:12:15.199Z,7.96
2023-04-25T21:14:42.232Z,7.94
2023-04-25T21:17:09.324Z,7.89
2023-04-25T21:19:36.358Z,7.85
2023-04-25T21:22:03.706Z,7.82
2023-04-25T21:24:33.044Z,7.80
2023-04-25T21:27:01.094Z,7.75
2023-04-25T21:29:28.250Z,7.70
2023-04-25T21:31:56.646Z,7.65
2023-04-25T21:34:23.828Z,7.59
2023-04-25T21:36:50.837Z,7.53
2023-04-25T21:39:17.901Z,7.44
2023-04-25T21:41:45.001Z,7.37
2023-04-25T21:44:14.424Z,7.32
2023-04-25T21:46:41.579Z,7.30
2023-04-25T21:49:08.711Z,7.26
2023-04-25T21:51:36.048Z,7.19
2023-04-25T21:54:05.478Z,7.14
2023-04-25T21:56:33.255Z,7.09
2023-04-25T21:59:00.268Z,7.04
2023-04-25T22:01:28.798Z,7.00
2023-04-25T22:03:56.209Z,6.94
2023-04-25T22:06:23.589Z,6.91
2023-04-25T22:08:51.014Z,6.84
2023-04-25T22:11:18.180Z,6.76
2023-04-25T22:13:45.582Z,6.73
2023-04-25T22:16:12.744Z,6.67
2023-04-25T22:18:40.580Z,6.62
2023-04-25T22:21:08.776Z,6.58
2023-04-25T22:23:37.212Z,6.53
2023-04-25T22:26:05.069Z,6.49
2023-04-25T22:28:33.100Z,6.46
2023-04-25T22:31:00.136Z,6.44
2023-04-25T22:33:27.614Z,6.43
2023-04-25T22:35:54.687Z,6.39
2023-04-25T22:38:22.052Z,6.36
2023-04-25T22:40:49.070Z,6.30
2023-04-25T22:43:16.289Z,6.23
2023-04-25T22:45:43.331Z,6.19
2023-04-25T22:48:10.484Z,6.13
2023-04-25T22:50:40.389Z,6.07
2023-04-25T22:53:10.100Z,5.98
2023-04-25T22:55:37.372Z,5.91
2023-04-25T22:58:07.469Z,5.85
2023-04-25T23:00:35.369Z,5.79
2023-04-25T23:03:06.289Z,5.75
2023-04-25T23:05:33.770Z,5.71
2023-04-25T23:08:00.784Z,5.68
2023-04-25T23:10:31.031Z,5.63
2023-04-25T23:13:00.505Z,5.56
2023-04-25T23:15:30.987Z,5.51
2023-04-25T23:17:58.912Z,5.49
2023-04-25T23:20:26.680Z,5.45
2023-04-25T23:22:54.780Z,5.40
2023-04-25T23:25:22.459Z,5.36
2023-04-25T23:27:49.620Z,5.31
2023-04-25T23:30:16.882Z,5.27
2023-04-25T23:32:44.032Z,5.23
2023-04-25T23:35:11.464Z,5.19
2023-04-25T23:37:43.105Z,5.16
2023-04-25T23:40:10.779Z,5.13
2023-04-25T23:42:39.275Z,5.10
2023-04-25T23:45:08.592Z,5.06
2023-04-25T23:47:36.745Z,5.01
2023-04-25T23:50:04.838Z,4.96
2023-04-25T23:52:32.045Z,4.93
2023-04-25T23:54:59.113Z,4.89
2023-04-25T23:57:26.199Z,4.85
2023-04-25T23:59:53.376Z,4.80
